createdAt,value
2023-04-08T00:02:17.289Z,72.63
2023-04-08T00:04:44.012Z,72.58
2023-04-08T00:07:10.729Z,73.25
2023-04-08T00:09:38.873Z,72.94
2023-04-08T00:12:05.803Z,72.64
2023-04-08T00:14:32.367Z,72.85
2023-04-08T00:16:59.035Z,72.70
2023-04-08T00:19:25.618Z,72.66
2023-04-08T00:21:52.342Z,73.02
2023-04-08T00:24:19.353Z,72.63
2023-04-08T00:26:47.296Z,72.75
2023-04-08T00:29:14.102Z,72.70
2023-04-08T00:31:40.694Z,73.03
2023-04-08T00:34:07.410Z,72.91
2023-04-08T00:36:34.059Z,72.54
2023-04-08T00:39:00.590Z,72.65
2023-04-08T00:41:27.318Z,72.90
2023-04-08T00:43:55.291Z,72.89
2023-04-08T00:46:22.184Z,72.82
2023-04-08T00:48:49.244Z,72.69
2023-04-08T00:51:15.993Z,72.87
2023-04-08T00:53:42.584Z,72.95
2023-04-08T00:56:10.484Z,73.17
2023-04-08T00:58:37.635Z,73.15
2023-04-08T01:01:10.831Z,73.19
2023-04-08T01:03:46.236Z,72.97
2023-04-08T01:06:22.473Z,72.74
2023-04-08T01:08:51.401Z,73.26
2023-04-08T01:11:18.646Z,73.11
2023-04-08T01:13:46.572Z,73.20
2023-04-08T01:16:16.729Z,73.42
2023-04-08T01:18:45.063Z,73.52
2023-04-08T01:21:14.733Z,73.32
2023-04-08T01:23:51.379Z,72.99
2023-04-08T01:26:24.414Z,73.21
2023-04-08T01:28:53.343Z,72.79
2023-04-08T01:31:22.169Z,72.79
2023-04-08T01:33:51.030Z,72.95
2023-04-08T01:36:20.024Z,73.27
2023-04-08T01:38:48.700Z,73.24
2023-04-08T01:41:17.378Z,73.08
2023-04-08T01:43:46.347Z,72.98
2023-04-08T01:46:13.936Z,73.32
2023-04-08T01:48:41.513Z,73.07
2023-04-08T01:51:09.537Z,73.09
2023-04-08T01:53:36.558Z,73.04
2023-04-08T01:56:06.732Z,73.08
2023-04-08T01:58:43.105Z,72.64
2023-04-08T02:01:14.287Z,72.78
2023-04-08T02:03:44.190Z,72.82
2023-04-08T02:06:11.050Z,72.33
2023-04-08T02:08:37.631Z,72.56
2023-04-08T02:11:04.465Z,72.58
2023-04-08T02:13:32.188Z,72.41
2023-04-08T02:16:06.815Z,72.10
2023-04-08T02:18:37.481Z,72.44
2023-04-08T02:21:11.251Z,72.36
2023-04-08T02:23:39.379Z,72.20
2023-04-08T02:26:08.172Z,72.34
2023-04-08T02:28:36.075Z,72.27
2023-04-08T02:31:05.724Z,72.74
2023-04-08T02:33:35.458Z,72.80
2023-04-08T02:36:04.000Z,72.93
2023-04-08T02:38:30.829Z,73.08
2023-04-08T02:40:57.578Z,72.91
2023-04-08T02:43:24.150Z,73.04
2023-04-08T02:45:50.927Z,73.23
2023-04-08T02:48:17.592Z,73.85
2023-04-08T02:50:45.481Z,74.45
2023-04-08T02:53:12.316Z,74.95
2023-04-08T02:55:38.846Z,74.95
2023-04-08T02:58:05.434Z,74.63
2023-04-08T03:00:32.277Z,74.47
2023-04-08T03:02:59.403Z,74.87
2023-04-08T03:05:26.633Z,74.58
2023-04-08T03:07:54.448Z,74.55
2023-04-08T03:10:21.016Z,73.95
2023-04-08T03:12:47.649Z,73.80
2023-04-08T03:15:14.229Z,73.92
2023-04-08T03:17:40.753Z,73.85
2023-04-08T03:20:08.913Z,74.02
2023-04-08T03:22:36.361Z,73.60
2023-04-08T03:25:04.868Z,73.22
2023-04-08T03:27:31.660Z,73.17
2023-04-08T03:29:58.218Z,73.48
2023-04-08T03:32:25.209Z,73.00
2023-04-08T03:34:52.160Z,72.96
2023-04-08T03:37:18.764Z,71.79
2023-04-08T03:39:45.320Z,71.52
2023-04-08T03:42:13.389Z,71.73
2023-04-08T03:44:39.996Z,71.97
2023-04-08T03:47:06.683Z,71.88
2023-04-08T03:49:33.281Z,71.87
2023-04-08T03:51:59.942Z,71.84
2023-04-08T03:54:26.483Z,71.84
2023-04-08T03:56:53.522Z,71.93
2023-04-08T03:59:21.470Z,71.87
2023-04-08T04:01:48.036Z,71.81
2023-04-08T04:04:15.074Z,71.63
2023-04-08T04:06:41.797Z,71.56
2023-04-08T04:09:09.132Z,71.40
2023-04-08T04:11:35.720Z,71.60
2023-04-08T04:14:02.388Z,71.83
2023-04-08T04:16:32.727Z,71.97
2023-04-08T04:18:59.870Z,72.21
2023-04-08T04:21:26.665Z,72.73
2023-04-08T04:23:53.234Z,72.45
2023-04-08T04:26:20.551Z,72.45
2023-04-08T04:28:47.145Z,71.74
2023-04-08T04:31:18.833Z,71.56
2023-04-08T04:33:46.951Z,71.79
2023-04-08T04:36:13.506Z,71.90
2023-04-08T04:38:40.104Z,72.04
2023-04-08T04:41:07.401Z,72.01
2023-04-08T04:43:34.131Z,71.94
2023-04-08T04:46:00.810Z,71.93
2023-04-08T04:48:27.603Z,71.71
2023-04-08T04:51:00.471Z,71.25
2023-04-08T04:53:27.233Z,71.03
2023-04-08T04:55:53.857Z,71.81
2023-04-08T04:58:20.577Z,71.19
2023-04-08T05:00:47.860Z,71.59
2023-04-08T05:03:14.584Z,71.80
2023-04-08T05:05:41.259Z,71.40
2023-04-08T05:08:09.374Z,71.11
2023-04-08T05:10:35.920Z,71.03
2023-04-08T05:13:02.667Z,70.80
2023-04-08T05:15:29.236Z,70.78
2023-04-08T05:17:55.897Z,70.52
2023-04-08T05:20:22.505Z,70.98
2023-04-08T05:22:49.717Z,71.36
2023-04-08T05:25:17.857Z,71.45
2023-04-08T05:27:44.644Z,71.53
2023-04-08T05:30:12.161Z,71.30
2023-04-08T05:32:41.236Z,71.58
2023-04-08T05:35:08.678Z,71.57
2023-04-08T05:37:35.247Z,71.69
2023-04-08T05:40:02.069Z,71.25
2023-04-08T05:42:30.164Z,71.06
2023-04-08T05:44:56.810Z,70.58
2023-04-08T05:47:23.411Z,70.42
2023-04-08T05:49:51.336Z,70.27
2023-04-08T05:52:17.941Z,69.77
2023-04-08T05:54:44.678Z,69.85
2023-04-08T05:57:11.382Z,70.14
2023-04-08T05:59:39.442Z,69.61
2023-04-08T06:02:06.183Z,71.38
2023-04-08T06:04:33.049Z,71.62
2023-04-08T06:06:59.884Z,72.21
2023-04-08T06:09:26.605Z,71.54
2023-04-08T06:11:53.225Z,72.50
2023-04-08T06:14:19.821Z,72.68
2023-04-08T06:16:47.787Z,73.01
2023-04-08T06:19:14.505Z,72.73
2023-04-08T06:21:44.342Z,72.10
2023-04-08T06:24:10.890Z,71.94
2023-04-08T06:26:37.469Z,72.20
2023-04-08T06:29:04.062Z,72.66
2023-04-08T06:31:30.700Z,73.55
2023-04-08T06:33:58.687Z,75.05
2023-04-08T06:36:25.226Z,73.72
2023-04-08T06:38:52.083Z,73.02
2023-04-08T06:41:18.956Z,72.54
2023-04-08T06:43:45.769Z,72.23
2023-04-08T06:46:12.414Z,72.20
2023-04-08T06:48:39.013Z,72.52
2023-04-08T06:51:07.183Z,72.02
2023-04-08T06:53:33.760Z,71.16
2023-04-08T06:56:00.678Z,71.22
2023-04-08T06:58:27.398Z,70.92
2023-04-08T07:00:54.258Z,70.02
2023-04-08T07:03:20.925Z,69.21
2023-04-08T07:05:47.759Z,68.51
2023-04-08T07:08:15.758Z,67.51
2023-04-08T07:10:42.197Z,67.05
2023-04-08T07:13:08.839Z,66.68
2023-04-08T07:15:35.415Z,66.29
2023-04-08T07:18:02.103Z,67.19
2023-04-08T07:20:30.242Z,67.35
2023-04-08T07:22:58.341Z,67.38
2023-04-08T07:25:26.250Z,68.77
2023-04-08T07:27:53.006Z,68.62
2023-04-08T07:30:19.686Z,67.85
2023-04-08T07:32:46.397Z,67.20
2023-04-08T07:35:13.017Z,69.01
2023-04-08T07:37:39.683Z,69.88
2023-04-08T07:40:08.222Z,69.09
2023-04-08T07:42:36.174Z,69.51
2023-04-08T07:45:02.833Z,69.43
2023-04-08T07:47:29.489Z,69.90
2023-04-08T07:49:56.062Z,69.79
2023-04-08T07:52:22.751Z,70.14
2023-04-08T07:54:49.392Z,70.44
2023-04-08T07:57:16.002Z,69.94
2023-04-08T07:59:44.210Z,68.76
2023-04-08T08:02:10.935Z,69.37
2023-04-08T08:04:37.767Z,68.85
2023-04-08T08:07:04.629Z,67.76
2023-04-08T08:09:32.176Z,66.77
2023-04-08T08:11:58.880Z,65.99
2023-04-08T08:14:25.486Z,68.90
2023-04-08T08:16:53.641Z,69.62
2023-04-08T08:19:20.489Z,69.67
2023-04-08T08:21:47.105Z,69.49
2023-04-08T08:24:13.857Z,68.78
2023-04-08T08:26:40.503Z,67.55
2023-04-08T08:29:07.107Z,67.50
2023-04-08T08:31:33.790Z,67.32
2023-04-08T08:34:01.884Z,68.00
2023-04-08T08:36:28.762Z,67.81
2023-04-08T08:38:55.357Z,67.46
2023-04-08T08:41:21.928Z,67.53
2023-04-08T08:43:49.299Z,68.14
2023-04-08T08:46:17.876Z,69.28
2023-04-08T08:48:44.661Z,68.54
2023-04-08T08:51:13.620Z,68.34
2023-04-08T08:53:40.640Z,68.36
2023-04-08T08:58:38.831Z,69.57
2023-04-08T09:01:33.087Z,68.35
2023-04-08T09:04:11.938Z,68.20
2023-04-08T09:06:40.238Z,68.14
2023-04-08T09:09:07.122Z,67.13
2023-04-08T09:11:33.659Z,67.32
2023-04-08T09:14:00.288Z,66.32
2023-04-08T09:16:26.858Z,65.44
2023-04-08T09:18:53.830Z,64.56
2023-04-08T09:21:23.428Z,62.03
2023-04-08T09:23:53.031Z,60.19
2023-04-08T09:26:21.624Z,59.02
2023-04-08T09:28:59.165Z,59.17
2023-04-08T09:31:27.555Z,59.59
2023-04-08T09:33:55.735Z,59.38
2023-04-08T09:36:22.550Z,60.15
2023-04-08T09:38:50.613Z,60.06
2023-04-08T09:41:19.394Z,60.20
2023-04-08T09:43:49.003Z,60.70
2023-04-08T09:46:17.392Z,62.64
2023-04-08T09:48:49.673Z,62.39
2023-04-08T09:51:18.780Z,62.15
2023-04-08T09:53:48.049Z,62.25
2023-04-08T09:56:19.377Z,62.59
2023-04-08T09:58:51.996Z,62.23
2023-04-08T10:01:24.652Z,61.77
2023-04-08T10:03:55.060Z,60.50
2023-04-08T10:06:26.567Z,60.49
2023-04-08T10:08:53.394Z,61.75
2023-04-08T10:11:21.559Z,60.72
2023-04-08T10:13:48.936Z,58.37
2023-04-08T10:16:20.135Z,57.20
2023-04-08T10:18:46.888Z,57.12
2023-04-08T10:21:33.105Z,55.78
2023-04-08T10:24:00.652Z,56.22
2023-04-08T10:26:33.461Z,54.36
2023-04-08T10:29:35.631Z,55.64
2023-04-08T10:32:02.328Z,54.91
2023-04-08T10:34:29.601Z,49.25
2023-04-08T10:36:57.368Z,46.19
2023-04-08T10:39:25.613Z,48.84
2023-04-08T10:41:54.450Z,49.27
2023-04-08T10:44:23.232Z,49.76
2023-04-08T10:46:51.423Z,50.12
2023-04-08T10:49:18.387Z,51.22
2023-04-08T10:51:46.534Z,50.43
2023-04-08T10:54:14.232Z,50.50
2023-04-08T10:56:45.447Z,50.47
2023-04-08T10:59:14.136Z,48.61
2023-04-08T11:01:41.295Z,48.67
2023-04-08T11:04:12.325Z,46.90
2023-04-08T11:06:39.080Z,47.81
2023-04-08T11:09:05.678Z,47.27
2023-04-08T11:11:32.377Z,48.23
2023-04-08T11:13:59.218Z,48.80
2023-04-08T11:16:27.869Z,49.22
2023-04-08T11:18:55.849Z,49.99
2023-04-08T11:21:24.007Z,51.49
2023-04-08T11:23:51.114Z,50.46
2023-04-08T11:26:18.370Z,51.41
2023-04-08T11:28:45.263Z,52.44
2023-04-08T11:31:12.799Z,53.79
2023-04-08T11:33:46.594Z,53.09
2023-04-08T11:36:13.332Z,49.30
2023-04-08T11:38:40.426Z,48.93
2023-04-08T11:41:07.272Z,48.87
2023-04-08T11:43:33.984Z,49.29
2023-04-08T11:46:00.598Z,50.65
2023-04-08T11:48:27.672Z,50.50
2023-04-08T11:51:04.925Z,48.46
2023-04-08T11:53:31.676Z,50.65
2023-04-08T11:55:58.220Z,48.52
2023-04-08T11:58:24.864Z,49.25
2023-04-08T12:00:51.453Z,49.08
2023-04-08T12:03:18.234Z,49.32
2023-04-08T12:05:44.879Z,46.48
2023-04-08T12:08:13.208Z,46.60
2023-04-08T12:10:39.836Z,46.86
2023-04-08T12:13:06.388Z,48.78
2023-04-08T12:15:33.106Z,46.08
2023-04-08T12:17:59.586Z,47.09
2023-04-08T12:20:26.253Z,47.04
2023-04-08T12:22:52.830Z,47.49
2023-04-08T12:25:20.828Z,45.88
2023-04-08T12:27:47.415Z,46.66
2023-04-08T12:30:16.279Z,44.56
2023-04-08T12:32:43.261Z,44.72
2023-04-08T12:35:09.860Z,44.95
2023-04-08T12:37:36.444Z,44.64
2023-04-08T12:40:03.506Z,46.25
2023-04-08T12:42:31.428Z,46.48
2023-04-08T12:44:58.018Z,44.96
2023-04-08T12:47:26.108Z,45.70
2023-04-08T12:49:52.965Z,46.08
2023-04-08T12:52:19.567Z,47.25
2023-04-08T12:54:46.168Z,46.75
2023-04-08T12:57:12.771Z,48.47
2023-04-08T12:59:40.615Z,48.97
2023-04-08T13:02:07.475Z,48.71
2023-04-08T13:04:34.380Z,48.64
2023-04-08T13:07:01.005Z,48.38
2023-04-08T13:09:27.689Z,46.67
2023-04-08T13:11:54.300Z,47.40
2023-04-08T13:14:20.855Z,47.07
2023-04-08T13:16:48.857Z,48.55
2023-04-08T13:19:15.709Z,51.40
2023-04-08T13:21:43.485Z,52.44
2023-04-08T13:24:11.043Z,52.19
2023-04-08T13:26:37.619Z,52.07
2023-04-08T13:29:04.593Z,51.60
2023-04-08T13:31:31.578Z,51.46
2023-04-08T13:33:59.618Z,52.70
2023-04-08T13:36:26.281Z,52.74
2023-04-08T13:38:52.912Z,52.79
2023-04-08T13:41:20.092Z,53.42
2023-04-08T13:43:47.087Z,53.62
2023-04-08T13:46:13.700Z,54.16
2023-04-08T13:48:40.731Z,51.63
2023-04-08T13:51:08.714Z,53.68
2023-04-08T13:53:35.399Z,53.79
2023-04-08T13:56:01.981Z,50.88
2023-04-08T13:58:28.599Z,52.50
2023-04-08T14:00:55.238Z,53.55
2023-04-08T14:03:21.983Z,52.82
2023-04-08T14:05:48.670Z,52.96
2023-04-08T14:08:16.638Z,53.59
2023-04-08T14:10:43.204Z,53.20
2023-04-08T14:13:09.798Z,53.54
2023-04-08T14:15:36.392Z,53.16
2023-04-08T14:18:03.007Z,54.20
2023-04-08T14:20:30.164Z,52.83
2023-04-08T14:22:57.001Z,52.50
2023-04-08T14:25:25.391Z,51.85
2023-04-08T14:27:58.317Z,52.61
2023-04-08T14:30:25.377Z,52.59
2023-04-08T14:32:52.052Z,53.18
2023-04-08T14:35:18.850Z,54.87
2023-04-08T14:37:45.510Z,55.91
2023-04-08T14:40:12.537Z,55.58
2023-04-08T14:42:40.499Z,56.47
2023-04-08T14:45:08.253Z,56.29
2023-04-08T14:47:34.827Z,55.96
2023-04-08T14:50:01.489Z,56.62
2023-04-08T14:52:28.089Z,56.94
2023-04-08T14:54:54.654Z,57.41
2023-04-08T14:57:21.393Z,57.37
2023-04-08T14:59:49.300Z,58.47
2023-04-08T15:02:16.049Z,58.99
2023-04-08T15:04:42.805Z,59.34
2023-04-08T15:07:09.455Z,58.65
2023-04-08T15:09:36.102Z,57.92
2023-04-08T15:12:02.816Z,59.01
2023-04-08T15:14:29.387Z,59.94
2023-04-08T15:16:57.270Z,58.87
2023-04-08T15:19:23.963Z,58.88
2023-04-08T15:21:50.589Z,58.66
2023-04-08T15:24:17.220Z,58.50
2023-04-08T15:26:43.746Z,59.10
2023-04-08T15:29:10.278Z,58.48
2023-04-08T15:31:36.894Z,59.42
2023-04-08T15:34:05.009Z,60.53
2023-04-08T15:36:31.575Z,61.80
2023-04-08T15:38:58.161Z,61.53
2023-04-08T15:41:24.734Z,61.94
2023-04-08T15:43:52.330Z,61.67
2023-04-08T15:46:19.204Z,61.33
2023-04-08T15:48:45.807Z,60.82
2023-04-08T15:51:13.751Z,60.08
2023-04-08T15:53:40.856Z,59.36
2023-04-08T15:56:12.403Z,58.48
2023-04-08T15:58:38.961Z,57.24
2023-04-08T16:01:05.570Z,58.29
2023-04-08T16:03:32.210Z,59.50
2023-04-08T16:05:58.870Z,59.74
2023-04-08T16:08:26.847Z,59.86
2023-04-08T16:10:59.589Z,60.28
2023-04-08T16:13:26.176Z,60.70
2023-04-08T16:15:52.829Z,59.36
2023-04-08T16:18:19.683Z,59.78
2023-04-08T16:20:46.290Z,60.03
2023-04-08T16:23:13.072Z,59.64
2023-04-08T16:25:41.435Z,59.63
2023-04-08T16:28:08.132Z,58.84
2023-04-08T16:30:34.712Z,60.19
2023-04-08T16:33:01.324Z,59.83
2023-04-08T16:35:27.936Z,60.22
2023-04-08T16:37:54.471Z,60.60
2023-04-08T16:40:21.119Z,60.21
2023-04-08T16:42:49.063Z,59.70
2023-04-08T16:45:15.919Z,60.14
2023-04-08T16:47:42.740Z,59.21
2023-04-08T16:50:09.945Z,59.72
2023-04-08T16:52:36.518Z,60.02
2023-04-08T16:55:03.738Z,59.40
2023-04-08T16:57:30.263Z,60.24
2023-04-08T16:59:58.173Z,59.78
2023-04-08T17:02:25.004Z,59.33
2023-04-08T17:04:51.612Z,59.65
2023-04-08T17:07:18.369Z,59.28
2023-04-08T17:09:49.357Z,59.80
2023-04-08T17:12:16.265Z,59.43
2023-04-08T17:14:42.982Z,60.48
2023-04-08T17:17:11.036Z,60.47
2023-04-08T17:19:37.709Z,60.03
2023-04-08T17:22:04.323Z,60.79
2023-04-08T17:24:30.921Z,61.29
2023-04-08T17:26:57.514Z,61.20
2023-04-08T17:29:24.628Z,60.98
2023-04-08T17:31:51.252Z,60.50
2023-04-08T17:34:19.204Z,61.13
2023-04-08T17:36:45.770Z,61.47
2023-04-08T17:39:12.336Z,62.45
2023-04-08T17:41:40.945Z,62.45
2023-04-08T17:44:08.472Z,62.92
2023-04-08T17:46:35.370Z,63.60
2023-04-08T17:49:02.132Z,63.65
2023-04-08T17:51:30.272Z,63.63
2023-04-08T17:53:56.783Z,64.71
2023-04-08T17:56:23.613Z,63.84
2023-04-08T17:58:50.362Z,65.31
2023-04-08T18:01:17.065Z,65.18
2023-04-08T18:03:43.904Z,65.51
2023-04-08T18:06:10.676Z,65.64
2023-04-08T18:08:38.828Z,66.50
2023-04-08T18:11:05.634Z,66.05
2023-04-08T18:13:32.473Z,65.30
2023-04-08T18:15:59.254Z,65.18
2023-04-08T18:18:25.821Z,66.15
2023-04-08T18:20:52.395Z,65.57
2023-04-08T18:23:19.018Z,65.04
2023-04-08T18:25:47.407Z,65.73
2023-04-08T18:28:14.054Z,66.08
2023-04-08T18:30:40.700Z,66.29
2023-04-08T18:33:08.484Z,66.36
2023-04-08T18:35:35.083Z,65.73
2023-04-08T18:38:01.684Z,65.84
2023-04-08T18:40:28.538Z,65.71
2023-04-08T18:42:56.661Z,65.53
2023-04-08T18:45:23.736Z,65.93
2023-04-08T18:47:50.734Z,66.11
2023-04-08T18:50:17.964Z,65.72
2023-04-08T18:52:44.774Z,65.59
2023-04-08T18:55:11.480Z,65.09
2023-04-08T18:57:38.126Z,65.79
2023-04-08T19:00:08.020Z,66.22
2023-04-08T19:02:34.865Z,66.86
2023-04-08T19:05:01.772Z,68.01
2023-04-08T19:07:28.376Z,67.65
2023-04-08T19:09:56.205Z,68.71
2023-04-08T19:12:22.928Z,68.90
2023-04-08T19:14:49.633Z,68.46
2023-04-08T19:17:17.561Z,68.14
2023-04-08T19:19:44.277Z,68.30
2023-04-08T19:22:11.099Z,69.47
2023-04-08T19:24:37.732Z,68.37
2023-04-08T19:27:04.561Z,68.87
2023-04-08T19:29:33.820Z,68.81
2023-04-08T19:32:00.886Z,68.15
2023-04-08T19:34:28.959Z,68.24
2023-04-08T19:36:55.621Z,68.65
2023-04-08T19:39:24.073Z,69.51
2023-04-08T19:41:51.997Z,68.48
2023-04-08T19:44:18.581Z,67.32
2023-04-08T19:46:45.262Z,68.24
2023-04-08T19:49:12.121Z,68.02
2023-04-08T19:51:40.387Z,67.35
2023-04-08T19:54:06.980Z,68.54
2023-04-08T19:56:33.640Z,69.47
2023-04-08T19:59:00.724Z,69.24
2023-04-08T20:01:27.403Z,69.07
2023-04-08T20:03:54.290Z,68.62
2023-04-08T20:06:20.926Z,68.61
2023-04-08T20:08:49.201Z,68.60
2023-04-08T20:11:16.131Z,69.01
2023-04-08T20:13:42.746Z,68.78
2023-04-08T20:16:09.435Z,69.30
2023-04-08T20:18:36.084Z,69.01
2023-04-08T20:21:02.751Z,69.61
2023-04-08T20:23:29.477Z,68.55
2023-04-08T20:25:57.429Z,69.29
2023-04-08T20:28:24.205Z,69.11
2023-04-08T20:30:50.905Z,68.49
2023-04-08T20:33:17.652Z,68.20
2023-04-08T20:35:44.598Z,68.00
2023-04-08T20:38:11.370Z,69.14
2023-04-08T20:40:41.911Z,69.56
2023-04-08T20:43:09.953Z,70.47
2023-04-08T20:45:39.368Z,70.19
2023-04-08T20:48:06.602Z,70.36
2023-04-08T20:50:33.335Z,71.16
2023-04-08T20:53:00.173Z,71.97
2023-04-08T20:55:26.773Z,70.88
2023-04-08T20:57:53.453Z,71.72
2023-04-08T21:00:21.455Z,71.91
2023-04-08T21:02:48.529Z,71.92
2023-04-08T21:05:15.307Z,71.17
2023-04-08T21:07:41.898Z,71.71
2023-04-08T21:10:10.246Z,71.71
2023-04-08T21:12:36.912Z,71.48
2023-04-08T21:15:03.802Z,70.99
2023-04-08T21:17:32.022Z,71.01
2023-04-08T21:19:58.908Z,70.33
2023-04-08T21:22:25.512Z,70.56
2023-04-08T21:24:52.320Z,70.09
2023-04-08T21:27:18.946Z,69.33
2023-04-08T21:29:45.701Z,70.61
2023-04-08T21:32:12.656Z,70.19
2023-04-08T21:34:40.630Z,70.45
2023-04-08T21:37:07.295Z,70.09
2023-04-08T21:39:33.986Z,70.44
2023-04-08T21:42:00.826Z,70.11
2023-04-08T21:44:27.518Z,69.66
2023-04-08T21:46:54.107Z,70.50
2023-04-08T21:49:20.732Z,70.23
2023-04-08T21:51:48.696Z,69.91
2023-04-08T21:54:15.433Z,70.62
2023-04-08T21:56:41.989Z,70.48
2023-04-08T21:59:08.701Z,70.95
2023-04-08T22:01:35.330Z,70.34
2023-04-08T22:04:02.188Z,70.38
2023-04-08T22:06:32.599Z,70.81
2023-04-08T22:09:00.918Z,70.59
2023-04-08T22:11:27.698Z,70.88
2023-04-08T22:13:54.545Z,71.18
2023-04-08T22:16:21.403Z,70.70
2023-04-08T22:18:48.007Z,70.49
2023-04-08T22:21:14.579Z,70.77
2023-04-08T22:23:41.404Z,70.02
2023-04-08T22:26:09.307Z,71.09
2023-04-08T22:28:36.295Z,72.02
2023-04-08T22:31:02.964Z,70.99
2023-04-08T22:33:29.653Z,70.18
2023-04-08T22:35:56.809Z,70.75
2023-04-08T22:38:23.493Z,71.39
2023-04-08T22:40:49.984Z,72.29
2023-04-08T22:43:18.082Z,71.55
2023-04-08T22:45:44.728Z,71.50
2023-04-08T22:48:11.305Z,70.83
2023-04-08T22:50:38.135Z,70.48
2023-04-08T22:53:04.775Z,70.64
2023-04-08T22:55:32.127Z,69.61
2023-04-08T22:57:58.752Z,69.10
2023-04-08T23:00:26.721Z,69.75
2023-04-08T23:02:53.515Z,70.41
2023-04-08T23:05:20.530Z,70.57
2023-04-08T23:07:47.102Z,70.30
2023-04-08T23:10:13.652Z,70.47
2023-04-08T23:12:40.398Z,70.52
2023-04-08T23:15:07.870Z,71.27
2023-04-08T23:17:37.205Z,71.16
2023-04-08T23:20:04.318Z,71.65
2023-04-08T23:22:31.299Z,71.00
2023-04-08T23:24:57.834Z,71.11
2023-04-08T23:27:24.411Z,71.35
2023-04-08T23:29:51.252Z,70.71
2023-04-08T23:32:17.850Z,70.89
2023-04-08T23:34:46.013Z,71.08
2023-04-08T23:37:12.686Z,72.08
2023-04-08T23:39:39.431Z,72.08
2023-04-08T23:42:05.979Z,73.03
2023-04-08T23:44:32.593Z,73.07
2023-04-08T23:47:01.487Z,73.01
2023-04-08T23:49:28.111Z,73.33
2023-04-08T23:51:56.042Z,72.84
2023-04-08T23:54:22.624Z,73.63
2023-04-08T23:56:49.281Z,73.38
2023-04-08T23:59:15.971Z,72.63
